createdAt,value
2018-12-01T00:02:23.378Z,99289.55
2018-12-01T00:04:53.159Z,99283.11
2018-12-01T00:07:23.133Z,99286.03
2018-12-01T00:09:52.734Z,99284.83
2018-12-01T00:12:23.118Z,99284.63
2018-12-01T00:14:54.103Z,99281.39
2018-12-01T00:17:23.964Z,99285.22
2018-12-01T00:19:53.939Z,99285.92
2018-12-01T00:22:24.554Z,99286.81
2018-12-01T00:24:54.790Z,99119.17
2018-12-01T00:27:25.367Z,99289.73
2018-12-01T00:29:55.172Z,99187.16
2018-12-01T00:32:24.926Z,99289.94
2018-12-01T00:34:55.870Z,99280.31
2018-12-01T00:37:25.934Z,99280.73
2018-12-01T00:39:56.997Z,99278.22
2018-12-01T00:42:26.983Z,99280.14
2018-12-01T00:44:57.701Z,99283.64
2018-12-01T00:47:27.734Z,99286.37
2018-12-01T00:49:57.474Z,99286.67
2018-12-01T00:52:28.751Z,99293.09
2018-12-01T00:54:58.875Z,99299.52
2018-12-01T00:57:29.967Z,99292.91
2018-12-01T01:00:00.412Z,99289.98
2018-12-01T01:02:34.309Z,99292.80
2018-12-01T01:05:04.789Z,99298.53
2018-12-01T01:07:35.545Z,99294.53
2018-12-01T01:10:06.641Z,99306.17
2018-12-01T01:12:36.890Z,99307.48
2018-12-01T01:15:08.054Z,99306.48
2018-12-01T01:17:38.225Z,99310.28
2018-12-01T01:20:11.597Z,99301.45
2018-12-01T01:22:41.218Z,99305.36
2018-12-01T01:25:13.193Z,99311.70
2018-12-01T01:27:43.780Z,99309.98
2018-12-01T01:30:15.797Z,99307.98
2018-12-01T01:32:46.094Z,99306.06
2018-12-01T01:35:16.357Z,99309.37
2018-12-01T01:37:46.167Z,99307.29
2018-12-01T01:40:18.977Z,99308.67
2018-12-01T01:42:48.570Z,99313.88
2018-12-01T01:45:19.516Z,99322.73
2018-12-01T01:47:49.606Z,99319.20
2018-12-01T01:50:21.810Z,99323.23
2018-12-01T01:52:52.383Z,99321.31
2018-12-01T01:55:22.596Z,99322.82
2018-12-01T01:57:52.153Z,99323.31
2018-12-01T02:00:22.514Z,99320.52
2018-12-01T02:02:53.022Z,99314.11
2018-12-01T02:05:24.776Z,99317.29
2018-12-01T02:07:54.902Z,99311.27
2018-12-01T02:10:24.526Z,99312.64
2018-12-01T02:12:55.283Z,99326.00
2018-12-01T02:15:26.145Z,99324.08
2018-12-01T02:17:56.918Z,99319.84
2018-12-01T02:20:28.556Z,99317.23
2018-12-01T02:23:00.610Z,99323.46
2018-12-01T02:25:31.859Z,99321.19
2018-12-01T02:28:03.318Z,99317.67
2018-12-01T02:30:33.898Z,99318.28
2018-12-01T02:33:04.024Z,99310.14
2018-12-01T02:35:35.075Z,99309.94
2018-12-01T02:38:05.222Z,99311.45
2018-12-01T02:40:34.969Z,99304.93
2018-12-01T02:43:06.458Z,99309.94
2018-12-01T02:45:46.611Z,99311.74
2018-12-01T02:48:16.429Z,99315.55
2018-12-01T02:50:46.118Z,99318.36
2018-12-01T02:53:15.694Z,99314.66
2018-12-01T02:55:45.719Z,99314.06
2018-12-01T02:58:15.492Z,99319.18
2018-12-01T03:00:45.262Z,99325.52
2018-12-01T03:03:15.735Z,99327.44
2018-12-01T03:05:45.443Z,99325.22
2018-12-01T03:08:15.921Z,99324.72
2018-12-01T03:10:46.012Z,99330.63
2018-12-01T03:13:15.960Z,99324.21
2018-12-01T03:15:45.933Z,99318.68
2018-12-01T03:18:16.605Z,99324.52
2018-12-01T03:20:46.707Z,99318.89
2018-12-01T03:23:16.867Z,99315.38
2018-12-01T03:25:47.610Z,99317.89
2018-12-01T03:28:17.750Z,99323.73
2018-12-01T03:30:47.679Z,99324.31
2018-12-01T03:33:17.514Z,99328.13
2018-12-01T03:35:47.041Z,99323.37
2018-12-01T03:38:17.158Z,99326.23
2018-12-01T03:40:48.691Z,99332.95
2018-12-01T03:43:19.885Z,99328.47
2018-12-01T03:45:49.973Z,99332.45
2018-12-01T03:48:21.132Z,99332.08
2018-12-01T03:50:51.742Z,99322.84
2018-12-01T03:53:21.382Z,99318.14
2018-12-01T03:55:51.344Z,99323.98
2018-12-01T03:58:21.787Z,99328.20
2018-12-01T04:00:51.843Z,99319.88
2018-12-01T04:03:22.640Z,99312.93
2018-12-01T04:05:52.292Z,99316.96
2018-12-01T04:08:22.244Z,99313.86
2018-12-01T04:10:54.418Z,99329.62
2018-12-01T04:13:24.282Z,99314.48
2018-12-01T04:15:54.001Z,99318.72
2018-12-01T04:18:24.395Z,99313.89
2018-12-01T04:20:54.671Z,99314.31
2018-12-01T04:23:25.411Z,99320.92
2018-12-01T04:25:55.751Z,99318.93
2018-12-01T04:28:25.994Z,99321.94
2018-12-01T04:30:58.082Z,99322.24
2018-12-01T04:33:28.794Z,99219.78
2018-12-01T04:35:59.344Z,99320.55
2018-12-01T04:38:29.387Z,99319.94
2018-12-01T04:40:59.351Z,99322.86
2018-12-01T04:43:29.336Z,99322.23
2018-12-01T04:45:58.833Z,99319.92
2018-12-01T04:48:29.188Z,99324.34
2018-12-01T04:50:59.758Z,99326.64
2018-12-01T04:53:29.643Z,99338.89
2018-12-01T04:55:59.919Z,99248.97
2018-12-01T04:58:31.688Z,99331.15
2018-12-01T05:01:01.794Z,99340.72
2018-12-01T05:03:32.381Z,99346.33
2018-12-01T05:06:02.092Z,99340.01
2018-12-01T05:08:31.877Z,99309.69
2018-12-01T05:11:09.441Z,99346.84
2018-12-01T05:13:40.841Z,99351.56
2018-12-01T05:16:11.038Z,99347.55
2018-12-01T05:18:40.740Z,99353.68
2018-12-01T05:21:10.453Z,99355.67
2018-12-01T05:23:40.387Z,99362.61
2018-12-01T05:26:10.205Z,99351.73
2018-12-01T05:28:39.780Z,99366.94
2018-12-01T05:31:10.119Z,99363.13
2018-12-01T05:33:40.076Z,99378.80
2018-12-01T05:36:09.684Z,99363.81
2018-12-01T05:38:39.675Z,99366.59
2018-12-01T05:41:09.480Z,99367.02
2018-12-01T05:43:39.190Z,99357.77
2018-12-01T05:46:08.764Z,99363.61
2018-12-01T05:48:38.299Z,99361.89
2018-12-01T05:51:08.281Z,99361.20
2018-12-01T05:53:38.238Z,99366.72
2018-12-01T05:56:08.770Z,99354.78
2018-12-01T05:58:38.545Z,99365.62
2018-12-01T06:01:08.248Z,99374.16
2018-12-01T06:03:38.306Z,99362.72
2018-12-01T06:06:08.111Z,99372.07
2018-12-01T06:08:37.836Z,99374.53
2018-12-01T06:11:08.155Z,99359.36
2018-12-01T06:13:37.724Z,99367.90
2018-12-01T06:16:07.423Z,99364.28
2018-12-01T06:18:37.666Z,99382.20
2018-12-01T06:21:07.351Z,99383.33
2018-12-01T06:23:37.078Z,99377.10
2018-12-01T06:26:07.459Z,99376.90
2018-12-01T06:28:37.292Z,99375.17
2018-12-01T06:31:06.919Z,99377.20
2018-12-01T06:33:37.110Z,99309.03
2018-12-01T06:36:07.200Z,99383.75
2018-12-01T06:38:36.942Z,99388.90
2018-12-01T06:41:07.001Z,99385.69
2018-12-01T06:43:37.262Z,99389.80
2018-12-01T06:46:07.170Z,99393.84
2018-12-01T06:48:37.330Z,99406.09
2018-12-01T06:51:06.963Z,99412.80
2018-12-01T06:53:36.613Z,99418.52
2018-12-01T06:56:06.682Z,99380.59
2018-12-01T06:58:36.470Z,99323.08
2018-12-01T07:01:06.769Z,99423.77
2018-12-01T07:03:36.910Z,99439.44
2018-12-01T07:06:06.867Z,99438.34
2018-12-01T07:08:37.564Z,99441.45
2018-12-01T07:11:08.229Z,99440.25
2018-12-01T07:13:38.052Z,99436.31
2018-12-01T07:16:07.987Z,99435.91
2018-12-01T07:18:48.626Z,99433.01
2018-12-01T07:21:19.755Z,99432.42
2018-12-01T07:23:49.885Z,99433.03
2018-12-01T07:26:20.016Z,99439.86
2018-12-01T07:28:49.960Z,99434.36
2018-12-01T07:31:20.173Z,99340.61
2018-12-01T07:33:50.494Z,99445.91
2018-12-01T07:36:21.546Z,99435.13
2018-12-01T07:38:52.198Z,99434.75
2018-12-01T07:41:22.444Z,99433.44
2018-12-01T07:43:52.422Z,99433.44
2018-12-01T07:46:22.765Z,99423.91
2018-12-01T07:48:53.714Z,99430.02
2018-12-01T07:51:23.738Z,99429.52
2018-12-01T07:53:53.486Z,99435.55
2018-12-01T07:56:24.048Z,99425.20
2018-12-01T07:58:53.771Z,99421.77
2018-12-01T08:01:24.048Z,99424.60
2018-12-01T08:03:54.505Z,99433.64
2018-12-01T08:06:28.046Z,99429.12
2018-12-01T08:08:59.946Z,99426.12
2018-12-01T08:11:30.298Z,99426.31
2018-12-01T08:14:00.287Z,99420.97
2018-12-01T08:16:30.358Z,99416.36
2018-12-01T08:19:01.280Z,99420.85
2018-12-01T08:21:31.233Z,99418.34
2018-12-01T08:24:01.956Z,99415.62
2018-12-01T08:26:32.347Z,99414.17
2018-12-01T08:29:01.871Z,99417.06
2018-12-01T08:31:31.439Z,99423.95
2018-12-01T08:34:01.279Z,99416.77
2018-12-01T08:36:31.727Z,99415.06
2018-12-01T08:39:02.212Z,99420.68
2018-12-01T08:41:34.099Z,99425.48
2018-12-01T08:44:07.317Z,99338.30
2018-12-01T08:46:37.501Z,99409.95
2018-12-01T08:49:09.512Z,99416.23
2018-12-01T08:51:39.533Z,99426.16
2018-12-01T08:54:09.851Z,99318.66
2018-12-01T08:56:39.650Z,99416.31
2018-12-01T08:59:09.283Z,99418.30
2018-12-01T09:01:39.541Z,99408.98
2018-12-01T09:04:09.781Z,99412.24
2018-12-01T09:06:40.924Z,99416.71
2018-12-01T09:09:10.641Z,99419.90
2018-12-01T09:11:40.603Z,99419.97
2018-12-01T09:14:21.254Z,99409.36
2018-12-01T09:16:53.224Z,99416.88
2018-12-01T09:19:24.628Z,99415.39
2018-12-01T09:21:54.196Z,99421.33
2018-12-01T09:24:24.328Z,99417.52
2018-12-01T09:26:54.111Z,99418.88
2018-12-01T09:29:23.982Z,99415.05
2018-12-01T09:31:55.540Z,99429.63
2018-12-01T09:34:25.288Z,99419.89
2018-12-01T09:36:54.880Z,99427.77
2018-12-01T09:39:25.827Z,99414.44
2018-12-01T09:41:55.907Z,99415.18
2018-12-01T09:44:26.520Z,99421.11
2018-12-01T09:46:57.179Z,99419.22
2018-12-01T09:49:29.315Z,99422.85
2018-12-01T09:51:58.554Z,99416.89
2018-12-01T09:54:29.527Z,99416.16
2018-12-01T09:57:04.298Z,99416.02
2018-12-01T09:59:34.912Z,99432.77
2018-12-01T10:02:07.320Z,99411.55
2018-12-01T10:04:38.191Z,99405.34
2018-12-01T10:07:08.931Z,99315.51
2018-12-01T10:09:39.084Z,99383.63
2018-12-01T10:12:09.324Z,99385.55
2018-12-01T10:14:39.610Z,99389.63
2018-12-01T10:17:11.966Z,99293.19
2018-12-01T10:19:41.992Z,99379.70
2018-12-01T10:22:14.182Z,99372.79
2018-12-01T10:24:45.157Z,99372.67
2018-12-01T10:27:15.371Z,99368.29
2018-12-01T10:29:51.156Z,99370.80
2018-12-01T10:32:24.541Z,99366.27
2018-12-01T10:34:55.559Z,99361.37
2018-12-01T10:37:30.786Z,99364.08
2018-12-01T10:40:02.297Z,99275.46
2018-12-01T10:42:33.270Z,99371.46
2018-12-01T10:45:06.908Z,99377.29
2018-12-01T10:47:37.643Z,99379.17
2018-12-01T10:50:11.368Z,99385.33
2018-12-01T10:52:43.673Z,99377.56
2018-12-01T10:55:19.446Z,99374.77
2018-12-01T10:57:50.153Z,99365.41
2018-12-01T11:00:25.326Z,99362.62
2018-12-01T11:02:56.709Z,99347.73
2018-12-01T11:05:27.779Z,99255.45
2018-12-01T11:07:57.322Z,99342.02
2018-12-01T11:10:28.371Z,99343.21
2018-12-01T11:12:58.388Z,99341.73
2018-12-01T11:15:31.657Z,99334.61
2018-12-01T11:18:01.338Z,99337.61
2018-12-01T11:20:31.396Z,99339.97
2018-12-01T11:23:00.955Z,99334.71
2018-12-01T11:25:30.676Z,99340.81
2018-12-01T11:28:01.538Z,99239.89
2018-12-01T11:30:31.502Z,99337.84
2018-12-01T11:33:01.225Z,99340.31
2018-12-01T11:35:31.674Z,99347.89
2018-12-01T11:38:01.802Z,99259.38
2018-12-01T11:40:31.804Z,99357.73
2018-12-01T11:43:02.613Z,99345.27
2018-12-01T11:45:32.210Z,99341.39
2018-12-01T11:48:03.773Z,99352.40
2018-12-01T11:50:33.943Z,99337.28
2018-12-01T11:53:03.647Z,99340.45
2018-12-01T11:55:33.324Z,99348.16
2018-12-01T11:58:03.864Z,99354.89
2018-12-01T12:00:33.931Z,99357.06
2018-12-01T12:03:04.869Z,99357.44
2018-12-01T12:05:35.043Z,99354.30
2018-12-01T12:08:19.844Z,99275.31
2018-12-01T12:10:50.643Z,99350.58
2018-12-01T12:13:21.042Z,99349.86
2018-12-01T12:15:50.835Z,99364.19
2018-12-01T12:18:23.555Z,99346.13
2018-12-01T12:20:54.896Z,99344.81
2018-12-01T12:23:26.590Z,99343.33
2018-12-01T12:25:56.833Z,99353.28
2018-12-01T12:28:26.412Z,99344.48
2018-12-01T12:30:56.303Z,99346.41
2018-12-01T12:33:26.772Z,99345.41
2018-12-01T12:35:56.950Z,99346.59
2018-12-01T12:38:27.301Z,99338.47
2018-12-01T12:40:58.047Z,99330.11
2018-12-01T12:43:27.746Z,99334.23
2018-12-01T12:45:57.527Z,99329.41
2018-12-01T12:48:29.060Z,99328.72
2018-12-01T12:50:59.067Z,99326.67
2018-12-01T12:53:29.308Z,99325.37
2018-12-01T12:55:59.450Z,99320.97
2018-12-01T12:58:30.384Z,99318.00
2018-12-01T13:01:02.745Z,99308.50
2018-12-01T13:03:33.880Z,99298.88
2018-12-01T13:06:07.610Z,99296.34
2018-12-01T13:08:39.398Z,99295.24
2018-12-01T13:11:12.155Z,99296.73
2018-12-01T13:13:42.272Z,99300.90
2018-12-01T13:16:12.477Z,99303.18
2018-12-01T13:18:42.351Z,99302.75
2018-12-01T13:21:12.522Z,99296.83
2018-12-01T13:23:43.079Z,99298.09
2018-12-01T13:26:14.126Z,99298.92
2018-12-01T13:28:43.970Z,99297.04
2018-12-01T13:31:14.348Z,99304.02
2018-12-01T13:33:44.627Z,99305.55
2018-12-01T13:36:14.491Z,99304.91
2018-12-01T13:38:44.993Z,99307.75
2018-12-01T13:41:14.910Z,99311.45
2018-12-01T13:43:44.678Z,99310.00
2018-12-01T13:46:14.792Z,99307.67
2018-12-01T13:48:44.441Z,99301.91
2018-12-01T13:51:14.280Z,99319.61
2018-12-01T13:53:44.203Z,99312.56
2018-12-01T13:56:20.769Z,99272.31
2018-12-01T13:58:53.674Z,99302.04
2018-12-01T14:01:24.843Z,99310.98
2018-12-01T14:03:55.533Z,99309.27
2018-12-01T14:06:25.256Z,99238.66
2018-12-01T14:08:55.667Z,99318.06
2018-12-01T14:11:25.761Z,99319.33
2018-12-01T14:13:57.833Z,99320.38
2018-12-01T14:16:30.545Z,99311.52
2018-12-01T14:19:02.839Z,99306.72
2018-12-01T14:21:34.532Z,99307.86
2018-12-01T14:24:04.581Z,99221.45
2018-12-01T14:26:35.605Z,99311.86
2018-12-01T14:29:07.598Z,99312.39
2018-12-01T14:31:38.923Z,99325.64
2018-12-01T14:34:09.502Z,99321.06
2018-12-01T14:36:41.123Z,99314.65
2018-12-01T14:39:13.771Z,99316.78
2018-12-01T14:41:44.591Z,99318.12
2018-12-01T14:44:17.969Z,99319.91
2018-12-01T14:46:51.406Z,99313.04
2018-12-01T14:49:23.273Z,99316.16
2018-12-01T14:51:53.671Z,99312.30
2018-12-01T14:54:23.806Z,99311.00
2018-12-01T14:56:56.781Z,99313.22
2018-12-01T14:59:26.760Z,99309.69
2018-12-01T15:01:56.941Z,99301.97
2018-12-01T15:04:27.202Z,99304.41
2018-12-01T15:06:59.392Z,99301.64
2018-12-01T15:09:29.837Z,99301.45
2018-12-01T15:11:59.876Z,99303.89
2018-12-01T15:14:34.369Z,99297.88
2018-12-01T15:17:04.241Z,99295.48
2018-12-01T15:19:34.375Z,99299.91
2018-12-01T15:22:07.219Z,99303.34
2018-12-01T15:24:36.938Z,99309.19
2018-12-01T15:27:08.666Z,99316.84
2018-12-01T15:29:39.435Z,99308.39
2018-12-01T15:32:12.283Z,99309.70
2018-12-01T15:34:43.100Z,99309.70
2018-12-01T15:37:14.135Z,99305.39
2018-12-01T15:39:46.066Z,99301.34
2018-12-01T15:42:17.140Z,99301.66
2018-12-01T15:44:52.523Z,99308.37
2018-12-01T15:47:23.584Z,99299.92
2018-12-01T15:49:56.674Z,99307.37
2018-12-01T15:52:26.955Z,99300.41
2018-12-01T15:54:56.482Z,99303.31
2018-12-01T15:57:26.262Z,99295.27
2018-12-01T15:59:56.420Z,99305.41
2018-12-01T16:02:25.901Z,99306.51
2018-12-01T16:04:57.926Z,99304.29
2018-12-01T16:07:27.901Z,99303.69
2018-12-01T16:09:58.169Z,99303.36
2018-12-01T16:12:28.255Z,99300.34
2018-12-01T16:14:59.397Z,99299.34
2018-12-01T16:17:29.325Z,99295.81
2018-12-01T16:19:59.282Z,99293.94
2018-12-01T16:22:29.342Z,99299.87
2018-12-01T16:24:59.994Z,99206.86
2018-12-01T16:27:30.855Z,99293.16
2018-12-01T16:30:01.217Z,99298.78
2018-12-01T16:32:32.394Z,99296.30
2018-12-01T16:35:02.003Z,99295.29
2018-12-01T16:37:31.691Z,99287.45
2018-12-01T16:40:03.137Z,99289.74
2018-12-01T16:42:33.108Z,99286.75
2018-12-01T16:45:03.652Z,99291.16
2018-12-01T16:47:35.352Z,99287.48
2018-12-01T16:50:07.703Z,99290.52
2018-12-01T16:52:37.521Z,99279.63
2018-12-01T16:55:11.448Z,99170.36
2018-12-01T16:57:41.011Z,99258.95
2018-12-01T17:00:16.173Z,99261.57
2018-12-01T17:02:46.876Z,99261.84
2018-12-01T17:05:19.159Z,99255.30
2018-12-01T17:07:52.804Z,99249.39
2018-12-01T17:10:23.077Z,99251.44
2018-12-01T17:12:54.727Z,99040.58
2018-12-01T17:15:26.170Z,99241.20
2018-12-01T17:17:56.914Z,99230.76
2018-12-01T17:20:26.828Z,99219.52
2018-12-01T17:22:58.135Z,99212.30
2018-12-01T17:25:27.721Z,99209.50
2018-12-01T17:28:00.080Z,99199.14
2018-12-01T17:30:31.342Z,99198.56
2018-12-01T17:33:01.843Z,99203.61
2018-12-01T17:35:32.363Z,99200.81
2018-12-01T17:38:05.864Z,99193.69
2018-12-01T17:40:44.402Z,99185.05
2018-12-01T17:43:18.436Z,99178.84
2018-12-01T17:45:48.049Z,99159.36
2018-12-01T17:50:59.746Z,99165.88
2018-12-01T17:53:30.018Z,99162.97
2018-12-01T17:56:00.459Z,99159.55
2018-12-01T17:58:31.227Z,99154.52
2018-12-01T18:01:01.954Z,99158.94
2018-12-01T18:03:31.754Z,99161.55
2018-12-01T18:06:03.809Z,99153.14
2018-12-01T18:08:39.008Z,99153.83
2018-12-01T18:11:10.049Z,99147.60
2018-12-01T18:13:40.613Z,99149.21
2018-12-01T18:16:12.275Z,99149.21
2018-12-01T18:18:42.325Z,99143.48
2018-12-01T18:21:13.808Z,99144.88
2018-12-01T18:23:43.638Z,99142.27
2018-12-01T18:26:17.523Z,99132.80
2018-12-01T18:28:49.171Z,99126.91
2018-12-01T18:31:24.851Z,99121.24
2018-12-01T18:33:59.499Z,99117.73
2018-12-01T18:36:30.114Z,99114.52
2018-12-01T18:39:00.040Z,99119.83
2018-12-01T18:41:29.912Z,99112.26
2018-12-01T18:44:00.123Z,99107.77
2018-12-01T18:46:29.877Z,99017.03
2018-12-01T18:49:00.351Z,99113.54
2018-12-01T18:51:30.411Z,99118.56
2018-12-01T18:54:00.470Z,99108.41
2018-12-01T18:56:32.138Z,99018.81
2018-12-01T18:59:02.889Z,99113.72
2018-12-01T19:01:33.283Z,99109.09
2018-12-01T19:04:09.247Z,99104.23
2018-12-01T19:06:39.059Z,99111.17
2018-12-01T19:09:10.123Z,99098.91
2018-12-01T19:11:40.724Z,99106.75
2018-12-01T19:14:11.427Z,99109.67
2018-12-01T19:16:41.332Z,99094.59
2018-12-01T19:19:13.042Z,99102.70
2018-12-01T19:21:42.766Z,99100.69
2018-12-01T19:24:12.375Z,99100.69
2018-12-01T19:26:42.427Z,99096.47
2018-12-01T19:29:12.105Z,99092.20
2018-12-01T19:31:42.964Z,99085.67
2018-12-01T19:34:14.387Z,99085.77
2018-12-01T19:36:44.276Z,99087.58
2018-12-01T19:39:13.886Z,99083.69
2018-12-01T19:41:43.886Z,99081.88
2018-12-01T19:44:13.444Z,99078.47
2018-12-01T19:46:43.251Z,99077.89
2018-12-01T19:49:13.309Z,99073.17
2018-12-01T19:51:43.187Z,99071.06
2018-12-01T19:54:13.340Z,99069.88
2018-12-01T19:56:43.239Z,99069.88
2018-12-01T19:59:13.486Z,99070.36
2018-12-01T20:01:43.321Z,99075.45
2018-12-01T20:04:13.532Z,99069.92
2018-12-01T20:06:43.936Z,99059.10
2018-12-01T20:09:16.466Z,99059.97
2018-12-01T20:11:57.868Z,99059.74
2018-12-01T20:14:59.789Z,99056.63
2018-12-01T20:17:38.102Z,99046.98
2018-12-01T20:20:13.409Z,99045.41
2018-12-01T20:28:29.770Z,99034.35
2018-12-01T20:31:02.176Z,99015.55
2018-12-01T20:33:33.108Z,99015.45
2018-12-01T20:36:09.573Z,99008.48
2018-12-01T20:38:45.858Z,99006.47
2018-12-01T20:41:16.565Z,98992.09
2018-12-01T20:43:46.579Z,98988.25
2018-12-01T20:46:16.620Z,98984.92
2018-12-01T20:48:46.925Z,98978.91
2018-12-01T20:51:17.237Z,98977.31
2018-12-01T20:53:47.946Z,98973.13
2018-12-01T20:56:22.431Z,98971.69
2018-12-01T20:58:53.609Z,98971.22
2018-12-01T21:01:24.957Z,98979.16
2018-12-01T21:03:54.912Z,98975.83
2018-12-01T21:06:24.822Z,98926.52
2018-12-01T21:08:55.360Z,98966.45
2018-12-01T21:11:25.725Z,98976.98
2018-12-01T21:13:57.483Z,98971.19
2018-12-01T21:16:28.300Z,98980.91
2018-12-01T21:18:57.948Z,98964.49
2018-12-01T21:21:27.584Z,98960.77
2018-12-01T21:24:00.759Z,98952.57
2018-12-01T21:26:31.255Z,98945.14
2018-12-01T21:29:02.056Z,98940.15
2018-12-01T21:31:33.307Z,98936.73
2018-12-01T21:34:03.470Z,98934.41
2018-12-01T21:36:33.943Z,98935.54
2018-12-01T21:39:04.337Z,98933.87
2018-12-01T21:41:34.006Z,98934.55
2018-12-01T21:44:03.717Z,98943.70
2018-12-01T21:46:33.644Z,98934.53
2018-12-01T21:49:03.203Z,98924.50
2018-12-01T21:51:32.707Z,98922.02
2018-12-01T21:54:03.108Z,98906.56
2018-12-01T21:56:33.313Z,98890.93
2018-12-01T21:59:02.887Z,98889.03
2018-12-01T22:01:33.213Z,98885.77
2018-12-01T22:04:03.582Z,98880.88
2018-12-01T22:06:34.420Z,98893.03
2018-12-01T22:09:04.733Z,98887.94
2018-12-01T22:11:35.576Z,98883.20
2018-12-01T22:14:05.217Z,98876.11
2018-12-01T22:16:35.161Z,98886.63
2018-12-01T22:19:05.350Z,98874.48
2018-12-01T22:21:35.402Z,98869.20
2018-12-01T22:24:06.133Z,98870.06
2018-12-01T22:26:36.868Z,98866.05
2018-12-01T22:29:06.914Z,98878.54
2018-12-01T22:31:36.831Z,98874.89
2018-12-01T22:34:07.914Z,98881.22
2018-12-01T22:36:37.515Z,98871.31
2018-12-01T22:39:11.178Z,98876.49
2018-12-01T22:41:40.883Z,98881.05
2018-12-01T22:44:10.511Z,98881.72
2018-12-01T22:46:40.411Z,98885.38
2018-12-01T22:49:10.074Z,98876.11
2018-12-01T22:51:39.997Z,98871.78
2018-12-01T22:54:10.345Z,98867.39
2018-12-01T22:56:40.749Z,98860.91
2018-12-01T22:59:10.899Z,98861.75
2018-12-01T23:01:42.099Z,98853.45
2018-12-01T23:04:11.959Z,98844.31
2018-12-01T23:06:42.066Z,98840.16
2018-12-01T23:09:12.651Z,98827.96
2018-12-01T23:11:42.999Z,98824.72
2018-12-01T23:14:13.381Z,98812.63
2018-12-01T23:16:44.133Z,98802.37
2018-12-01T23:19:17.250Z,98798.80
2018-12-01T23:21:47.298Z,98791.38
2018-12-01T23:24:18.404Z,98797.48
2018-12-01T23:26:48.396Z,98781.07
2018-12-01T23:29:18.429Z,98776.52
2018-12-01T23:31:48.769Z,98772.23
2018-12-01T23:34:19.611Z,98770.88
2018-12-01T23:36:51.579Z,98773.79
2018-12-01T23:39:21.764Z,98767.89
2018-12-01T23:41:52.573Z,98762.94
2018-12-01T23:44:30.124Z,98767.78
2018-12-01T23:47:00.140Z,98763.63
2018-12-01T23:49:30.279Z,98750.02
2018-12-01T23:52:01.047Z,98744.16
2018-12-01T23:54:31.136Z,98732.01
2018-12-01T23:57:01.106Z,98724.44
2018-12-01T23:59:30.687Z,98728.36
